sensor_id;sensor_type;location;lat;lon;timestamp;P1;durP1;ratioP1;P2;durP2;ratioP2
3307;SDS011;1666;48.898;9.182;2023-08-30T00:00:52;19.30;;;17.02;;
3307;SDS011;1666;48.898;9.182;2023-08-30T00:03:22;20.00;;;17.77;;
3307;SDS011;1666;48.898;9.182;2023-08-30T00:05:51;22.58;;;17.55;;
3307;SDS011;1666;48.898;9.182;2023-08-30T00:08:22;21.42;;;18.15;;
3307;SDS011;1666;48.898;9.182;2023-08-30T00:10:54;25.05;;;19.60;;
3307;SDS011;1666;48.898;9.182;2023-08-30T00:13:25;21.65;;;19.20;;
3307;SDS011;1666;48.898;9.182;2023-08-30T00:15:55;20.77;;;18.27;;
3307;SDS011;1666;48.898;9.182;2023-08-30T00:18:25;29.02;;;19.52;;
3307;SDS011;1666;48.898;9.182;2023-08-30T00:20:55;22.10;;;18.25;;
3307;SDS011;1666;48.898;9.182;2023-08-30T00:23:26;21.42;;;18.45;;
3307;SDS011;1666;48.898;9.182;2023-08-30T00:25:58;20.15;;;18.15;;
3307;SDS011;1666;48.898;9.182;2023-08-30T00:28:28;20.33;;;17.92;;
3307;SDS011;1666;48.898;9.182;2023-08-30T00:30:58;21.05;;;18.63;;
3307;SDS011;1666;48.898;9.182;2023-08-30T00:33:28;22.10;;;19.63;;
3307;SDS011;1666;48.898;9.182;2023-08-30T00:35:58;22.65;;;19.95;;
3307;SDS011;1666;48.898;9.182;2023-08-30T00:38:28;22.90;;;19.63;;
3307;SDS011;1666;48.898;9.182;2023-08-30T00:41:01;23.98;;;19.77;;
3307;SDS011;1666;48.898;9.182;2023-08-30T00:43:31;20.83;;;18.50;;
3307;SDS011;1666;48.898;9.182;2023-08-30T00:46:01;23.67;;;19.92;;
3307;SDS011;1666;48.898;9.182;2023-08-30T00:48:31;22.67;;;20.02;;
3307;SDS011;1666;48.898;9.182;2023-08-30T00:51:01;22.65;;;20.27;;
3307;SDS011;1666;48.898;9.182;2023-08-30T00:53:32;22.50;;;19.77;;
3307;SDS011;1666;48.898;9.182;2023-08-30T00:56:05;23.35;;;20.48;;
3307;SDS011;1666;48.898;9.182;2023-08-30T00:58:35;25.65;;;20.63;;
3307;SDS011;1666;48.898;9.182;2023-08-30T01:01:05;23.10;;;20.65;;
3307;SDS011;1666;48.898;9.182;2023-08-30T01:03:36;21.25;;;19.00;;
3307;SDS011;1666;48.898;9.182;2023-08-30T01:06:06;23.67;;;19.67;;
3307;SDS011;1666;48.898;9.182;2023-08-30T01:08:36;21.83;;;19.52;;
3307;SDS011;1666;48.898;9.182;2023-08-30T01:11:11;22.33;;;18.90;;
3307;SDS011;1666;48.898;9.182;2023-08-30T01:13:46;21.23;;;18.88;;
3307;SDS011;1666;48.898;9.182;2023-08-30T01:16:22;21.27;;;18.73;;
3307;SDS011;1666;48.898;9.182;2023-08-30T01:18:53;21.58;;;17.88;;
3307;SDS011;1666;48.898;9.182;2023-08-30T01:21:27;20.38;;;18.23;;
3307;SDS011;1666;48.898;9.182;2023-08-30T01:24:07;21.38;;;19.08;;
3307;SDS011;1666;48.898;9.182;2023-08-30T01:26:49;22.48;;;18.60;;
3307;SDS011;1666;48.898;9.182;2023-08-30T01:29:32;21.42;;;18.20;;
3307;SDS011;1666;48.898;9.182;2023-08-30T01:32:04;22.33;;;19.23;;
3307;SDS011;1666;48.898;9.182;2023-08-30T01:34:37;22.30;;;18.85;;
3307;SDS011;1666;48.898;9.182;2023-08-30T01:37:09;23.02;;;19.13;;
3307;SDS011;1666;48.898;9.182;2023-08-30T01:39:40;21.75;;;19.45;;
3307;SDS011;1666;48.898;9.182;2023-08-30T01:42:14;20.75;;;18.60;;
3307;SDS011;1666;48.898;9.182;2023-08-30T01:44:48;21.50;;;19.20;;
3307;SDS011;1666;48.898;9.182;2023-08-30T01:47:21;22.88;;;18.55;;
3307;SDS011;1666;48.898;9.182;2023-08-30T01:49:53;20.92;;;18.65;;
3307;SDS011;1666;48.898;9.182;2023-08-30T01:52:24;20.65;;;18.45;;
3307;SDS011;1666;48.898;9.182;2023-08-30T01:54:55;21.58;;;18.10;;
3307;SDS011;1666;48.898;9.182;2023-08-30T01:57:29;22.88;;;18.88;;
3307;SDS011;1666;48.898;9.182;2023-08-30T01:59:59;22.27;;;18.00;;
3307;SDS011;1666;48.898;9.182;2023-08-30T02:02:30;21.50;;;19.05;;
3307;SDS011;1666;48.898;9.182;2023-08-30T02:05:00;23.70;;;19.42;;
3307;SDS011;1666;48.898;9.182;2023-08-30T02:07:33;23.98;;;18.83;;
3307;SDS011;1666;48.898;9.182;2023-08-30T02:10:06;20.88;;;18.48;;
3307;SDS011;1666;48.898;9.182;2023-08-30T02:12:42;23.92;;;19.48;;
3307;SDS011;1666;48.898;9.182;2023-08-30T02:15:15;23.15;;;20.05;;
3307;SDS011;1666;48.898;9.182;2023-08-30T02:17:48;23.95;;;19.48;;
3307;SDS011;1666;48.898;9.182;2023-08-30T02:20:18;23.15;;;19.83;;
3307;SDS011;1666;48.898;9.182;2023-08-30T02:22:48;25.05;;;20.35;;
3307;SDS011;1666;48.898;9.182;2023-08-30T02:25:19;25.65;;;20.65;;
3307;SDS011;1666;48.898;9.182;2023-08-30T02:27:53;25.98;;;20.98;;
3307;SDS011;1666;48.898;9.182;2023-08-30T02:30:23;27.67;;;21.85;;
3307;SDS011;1666;48.898;9.182;2023-08-30T02:32:53;24.73;;;21.63;;
3307;SDS011;1666;48.898;9.182;2023-08-30T02:35:23;27.40;;;22.60;;
3307;SDS011;1666;48.898;9.182;2023-08-30T02:37:53;27.17;;;23.33;;
3307;SDS011;1666;48.898;9.182;2023-08-30T02:40:22;29.95;;;22.52;;
3307;SDS011;1666;48.898;9.182;2023-08-30T02:42:55;25.75;;;21.95;;
3307;SDS011;1666;48.898;9.182;2023-08-30T02:45:25;27.73;;;21.00;;
3307;SDS011;1666;48.898;9.182;2023-08-30T02:47:55;24.33;;;20.35;;
3307;SDS011;1666;48.898;9.182;2023-08-30T02:50:25;25.80;;;21.20;;
3307;SDS011;1666;48.898;9.182;2023-08-30T02:52:55;27.35;;;21.73;;
3307;SDS011;1666;48.898;9.182;2023-08-30T02:55:25;24.77;;;21.60;;
3307;SDS011;1666;48.898;9.182;2023-08-30T02:57:58;27.02;;;21.55;;
3307;SDS011;1666;48.898;9.182;2023-08-30T03:00:28;25.55;;;21.08;;
3307;SDS011;1666;48.898;9.182;2023-08-30T03:02:58;25.00;;;21.33;;
3307;SDS011;1666;48.898;9.182;2023-08-30T03:05:29;25.38;;;21.30;;
3307;SDS011;1666;48.898;9.182;2023-08-30T03:07:59;26.50;;;21.70;;
3307;SDS011;1666;48.898;9.182;2023-08-30T03:10:29;28.45;;;21.08;;
3307;SDS011;1666;48.898;9.182;2023-08-30T03:13:01;26.52;;;21.50;;
3307;SDS011;1666;48.898;9.182;2023-08-30T03:15:32;29.02;;;21.45;;
3307;SDS011;1666;48.898;9.182;2023-08-30T03:18:02;23.35;;;20.85;;
3307;SDS011;1666;48.898;9.182;2023-08-30T03:20:33;24.88;;;20.42;;
3307;SDS011;1666;48.898;9.182;2023-08-30T03:23:03;32.85;;;21.90;;
3307;SDS011;1666;48.898;9.182;2023-08-30T03:25:33;27.77;;;20.67;;
3307;SDS011;1666;48.898;9.182;2023-08-30T03:28:05;26.98;;;20.73;;
3307;SDS011;1666;48.898;9.182;2023-08-30T03:30:36;25.85;;;20.65;;
3307;SDS011;1666;48.898;9.182;2023-08-30T03:33:06;24.15;;;20.25;;
3307;SDS011;1666;48.898;9.182;2023-08-30T03:35:36;21.52;;;18.90;;
3307;SDS011;1666;48.898;9.182;2023-08-30T03:38:05;21.27;;;18.98;;
3307;SDS011;1666;48.898;9.182;2023-08-30T03:40:36;21.38;;;18.60;;
3307;SDS011;1666;48.898;9.182;2023-08-30T03:43:09;21.15;;;18.15;;
3307;SDS011;1666;48.898;9.182;2023-08-30T03:45:39;21.80;;;17.38;;
3307;SDS011;1666;48.898;9.182;2023-08-30T03:48:09;23.42;;;17.48;;
3307;SDS011;1666;48.898;9.182;2023-08-30T03:50:39;22.48;;;18.25;;
3307;SDS011;1666;48.898;9.182;2023-08-30T03:53:09;23.67;;;18.33;;
3307;SDS011;1666;48.898;9.182;2023-08-30T03:55:40;20.23;;;17.90;;
3307;SDS011;1666;48.898;9.182;2023-08-30T03:58:12;23.92;;;18.63;;
3307;SDS011;1666;48.898;9.182;2023-08-30T04:00:42;22.33;;;18.35;;
3307;SDS011;1666;48.898;9.182;2023-08-30T04:03:13;20.80;;;17.95;;
3307;SDS011;1666;48.898;9.182;2023-08-30T04:05:44;19.85;;;17.20;;
3307;SDS011;1666;48.898;9.182;2023-08-30T04:08:14;22.27;;;17.98;;
3307;SDS011;1666;48.898;9.182;2023-08-30T04:10:43;21.10;;;18.70;;
3307;SDS011;1666;48.898;9.182;2023-08-30T04:13:18;19.65;;;17.15;;
3307;SDS011;1666;48.898;9.182;2023-08-30T04:15:48;20.50;;;17.05;;
3307;SDS011;1666;48.898;9.182;2023-08-30T04:18:18;23.10;;;19.05;;
3307;SDS011;1666;48.898;9.182;2023-08-30T04:20:48;18.30;;;16.40;;
3307;SDS011;1666;48.898;9.182;2023-08-30T04:23:18;19.52;;;17.25;;
3307;SDS011;1666;48.898;9.182;2023-08-30T04:25:48;18.70;;;16.42;;
3307;SDS011;1666;48.898;9.182;2023-08-30T04:28:20;18.90;;;16.90;;
3307;SDS011;1666;48.898;9.182;2023-08-30T04:30:52;17.38;;;15.57;;
3307;SDS011;1666;48.898;9.182;2023-08-30T04:33:23;18.15;;;15.98;;
3307;SDS011;1666;48.898;9.182;2023-08-30T04:35:53;17.17;;;15.23;;
3307;SDS011;1666;48.898;9.182;2023-08-30T04:38:23;20.95;;;17.55;;
3307;SDS011;1666;48.898;9.182;2023-08-30T04:40:56;19.42;;;17.38;;
3307;SDS011;1666;48.898;9.182;2023-08-30T04:43:29;19.60;;;17.50;;
3307;SDS011;1666;48.898;9.182;2023-08-30T04:45:59;18.48;;;16.48;;
3307;SDS011;1666;48.898;9.182;2023-08-30T04:48:29;18.67;;;16.67;;
3307;SDS011;1666;48.898;9.182;2023-08-30T04:51:00;17.95;;;15.98;;
3307;SDS011;1666;48.898;9.182;2023-08-30T04:53:31;22.15;;;17.02;;
3307;SDS011;1666;48.898;9.182;2023-08-30T04:56:09;19.10;;;16.38;;
3307;SDS011;1666;48.898;9.182;2023-08-30T04:58:42;19.67;;;17.30;;
3307;SDS011;1666;48.898;9.182;2023-08-30T05:01:12;21.52;;;17.27;;
3307;SDS011;1666;48.898;9.182;2023-08-30T05:03:42;20.98;;;17.25;;
3307;SDS011;1666;48.898;9.182;2023-08-30T05:06:12;21.02;;;18.45;;
3307;SDS011;1666;48.898;9.182;2023-08-30T05:08:43;21.70;;;17.80;;
3307;SDS011;1666;48.898;9.182;2023-08-30T05:11:13;21.65;;;18.15;;
3307;SDS011;1666;48.898;9.182;2023-08-30T05:13:45;22.00;;;16.80;;
3307;SDS011;1666;48.898;9.182;2023-08-30T05:16:15;17.60;;;15.80;;
3307;SDS011;1666;48.898;9.182;2023-08-30T05:18:45;18.75;;;16.75;;
3307;SDS011;1666;48.898;9.182;2023-08-30T05:21:15;19.92;;;15.70;;
3307;SDS011;1666;48.898;9.182;2023-08-30T05:23:45;21.63;;;17.52;;
3307;SDS011;1666;48.898;9.182;2023-08-30T05:26:15;21.13;;;16.67;;
3307;SDS011;1666;48.898;9.182;2023-08-30T05:28:48;20.35;;;17.20;;
3307;SDS011;1666;48.898;9.182;2023-08-30T05:31:18;23.88;;;17.25;;
3307;SDS011;1666;48.898;9.182;2023-08-30T05:33:48;19.20;;;16.42;;
3307;SDS011;1666;48.898;9.182;2023-08-30T05:36:18;21.13;;;17.42;;
3307;SDS011;1666;48.898;9.182;2023-08-30T05:38:48;20.60;;;17.60;;
3307;SDS011;1666;48.898;9.182;2023-08-30T05:41:18;23.20;;;17.02;;
3307;SDS011;1666;48.898;9.182;2023-08-30T05:43:51;19.75;;;16.50;;
3307;SDS011;1666;48.898;9.182;2023-08-30T05:46:20;19.02;;;15.90;;
3307;SDS011;1666;48.898;9.182;2023-08-30T05:48:51;24.17;;;17.05;;
3307;SDS011;1666;48.898;9.182;2023-08-30T05:51:21;20.55;;;16.80;;
3307;SDS011;1666;48.898;9.182;2023-08-30T05:53:51;19.02;;;16.20;;
3307;SDS011;1666;48.898;9.182;2023-08-30T05:56:21;18.13;;;15.13;;
3307;SDS011;1666;48.898;9.182;2023-08-30T05:58:53;17.77;;;14.55;;
3307;SDS011;1666;48.898;9.182;2023-08-30T06:01:23;18.42;;;14.27;;
3307;SDS011;1666;48.898;9.182;2023-08-30T06:03:54;19.27;;;14.55;;
3307;SDS011;1666;48.898;9.182;2023-08-30T06:06:24;16.15;;;14.45;;
3307;SDS011;1666;48.898;9.182;2023-08-30T06:08:54;22.25;;;14.00;;
3307;SDS011;1666;48.898;9.182;2023-08-30T06:11:23;16.67;;;13.35;;
3307;SDS011;1666;48.898;9.182;2023-08-30T06:13:56;17.77;;;13.73;;
3307;SDS011;1666;48.898;9.182;2023-08-30T06:16:27;18.15;;;14.15;;
3307;SDS011;1666;48.898;9.182;2023-08-30T06:18:56;18.98;;;12.70;;
3307;SDS011;1666;48.898;9.182;2023-08-30T06:21:27;13.43;;;12.02;;
3307;SDS011;1666;48.898;9.182;2023-08-30T06:23:57;18.90;;;12.50;;
3307;SDS011;1666;48.898;9.182;2023-08-30T06:26:26;16.55;;;12.60;;
3307;SDS011;1666;48.898;9.182;2023-08-30T06:28:59;13.48;;;11.85;;
3307;SDS011;1666;48.898;9.182;2023-08-30T06:31:30;16.73;;;12.30;;
3307;SDS011;1666;48.898;9.182;2023-08-30T06:34:01;15.02;;;12.32;;
3307;SDS011;1666;48.898;9.182;2023-08-30T06:36:31;12.43;;;11.23;;
3307;SDS011;1666;48.898;9.182;2023-08-30T06:39:01;18.88;;;15.95;;
3307;SDS011;1666;48.898;9.182;2023-08-30T06:41:31;13.82;;;12.30;;
3307;SDS011;1666;48.898;9.182;2023-08-30T06:44:03;13.25;;;11.23;;
3307;SDS011;1666;48.898;9.182;2023-08-30T06:46:34;14.10;;;11.95;;
3307;SDS011;1666;48.898;9.182;2023-08-30T06:49:04;12.10;;;10.77;;
3307;SDS011;1666;48.898;9.182;2023-08-30T06:51:36;12.13;;;10.52;;
3307;SDS011;1666;48.898;9.182;2023-08-30T06:54:06;10.10;;;9.10;;
3307;SDS011;1666;48.898;9.182;2023-08-30T06:56:36;12.55;;;9.48;;
3307;SDS011;1666;48.898;9.182;2023-08-30T06:59:08;9.85;;;8.85;;
3307;SDS011;1666;48.898;9.182;2023-08-30T07:01:38;10.75;;;9.10;;
3307;SDS011;1666;48.898;9.182;2023-08-30T07:04:08;10.15;;;9.18;;
3307;SDS011;1666;48.898;9.182;2023-08-30T07:06:38;11.15;;;9.55;;
3307;SDS011;1666;48.898;9.182;2023-08-30T07:09:08;12.23;;;9.10;;
3307;SDS011;1666;48.898;9.182;2023-08-30T07:11:38;11.93;;;10.00;;
3307;SDS011;1666;48.898;9.182;2023-08-30T07:14:10;11.82;;;9.55;;
3307;SDS011;1666;48.898;9.182;2023-08-30T07:16:41;11.27;;;9.70;;
3307;SDS011;1666;48.898;9.182;2023-08-30T07:19:21;9.85;;;8.85;;
3307;SDS011;1666;48.898;9.182;2023-08-30T07:21:51;10.95;;;8.15;;
3307;SDS011;1666;48.898;9.182;2023-08-30T07:24:21;9.65;;;8.27;;
3307;SDS011;1666;48.898;9.182;2023-08-30T07:26:51;9.45;;;8.27;;
3307;SDS011;1666;48.898;9.182;2023-08-30T07:29:24;12.40;;;8.43;;
3307;SDS011;1666;48.898;9.182;2023-08-30T07:31:54;13.05;;;9.88;;
3307;SDS011;1666;48.898;9.182;2023-08-30T07:34:24;9.73;;;7.85;;
3307;SDS011;1666;48.898;9.182;2023-08-30T07:36:54;9.25;;;8.10;;
3307;SDS011;1666;48.898;9.182;2023-08-30T07:39:25;8.68;;;7.88;;
3307;SDS011;1666;48.898;9.182;2023-08-30T07:41:55;11.38;;;8.88;;
3307;SDS011;1666;48.898;9.182;2023-08-30T07:44:27;10.13;;;9.13;;
3307;SDS011;1666;48.898;9.182;2023-08-30T07:46:57;11.57;;;9.25;;
3307;SDS011;1666;48.898;9.182;2023-08-30T07:49:27;12.57;;;9.50;;
3307;SDS011;1666;48.898;9.182;2023-08-30T07:51:57;11.65;;;9.10;;
3307;SDS011;1666;48.898;9.182;2023-08-30T07:54:28;11.40;;;8.63;;
3307;SDS011;1666;48.898;9.182;2023-08-30T07:56:59;10.23;;;8.77;;
3307;SDS011;1666;48.898;9.182;2023-08-30T07:59:32;13.75;;;9.88;;
3307;SDS011;1666;48.898;9.182;2023-08-30T08:02:02;14.80;;;8.88;;
3307;SDS011;1666;48.898;9.182;2023-08-30T08:04:34;10.30;;;9.15;;
3307;SDS011;1666;48.898;9.182;2023-08-30T08:07:04;13.50;;;9.80;;
3307;SDS011;1666;48.898;9.182;2023-08-30T08:09:34;11.13;;;9.95;;
3307;SDS011;1666;48.898;9.182;2023-08-30T08:12:05;10.52;;;9.30;;
3307;SDS011;1666;48.898;9.182;2023-08-30T08:14:37;11.93;;;9.00;;
3307;SDS011;1666;48.898;9.182;2023-08-30T08:17:07;9.45;;;8.40;;
3307;SDS011;1666;48.898;9.182;2023-08-30T08:19:37;10.10;;;8.23;;
3307;SDS011;1666;48.898;9.182;2023-08-30T08:22:09;9.43;;;8.45;;
3307;SDS011;1666;48.898;9.182;2023-08-30T08:24:40;9.82;;;8.05;;
3307;SDS011;1666;48.898;9.182;2023-08-30T08:27:10;9.20;;;7.80;;
3307;SDS011;1666;48.898;9.182;2023-08-30T08:29:43;10.25;;;7.68;;
3307;SDS011;1666;48.898;9.182;2023-08-30T08:32:13;10.98;;;7.70;;
3307;SDS011;1666;48.898;9.182;2023-08-30T08:34:43;10.77;;;7.75;;
3307;SDS011;1666;48.898;9.182;2023-08-30T08:37:13;9.15;;;7.47;;
3307;SDS011;1666;48.898;9.182;2023-08-30T08:39:43;9.93;;;6.88;;
3307;SDS011;1666;48.898;9.182;2023-08-30T08:42:13;11.07;;;6.90;;
3307;SDS011;1666;48.898;9.182;2023-08-30T08:44:49;8.02;;;7.15;;
3307;SDS011;1666;48.898;9.182;2023-08-30T08:47:20;10.32;;;6.68;;
3307;SDS011;1666;48.898;9.182;2023-08-30T08:49:50;8.60;;;6.70;;
3307;SDS011;1666;48.898;9.182;2023-08-30T08:52:20;8.35;;;6.90;;
3307;SDS011;1666;48.898;9.182;2023-08-30T08:55:00;7.13;;;6.28;;
3307;SDS011;1666;48.898;9.182;2023-08-30T08:57:30;7.47;;;6.68;;
3307;SDS011;1666;48.898;9.182;2023-08-30T09:00:03;8.60;;;5.80;;
3307;SDS011;1666;48.898;9.182;2023-08-30T09:02:34;6.85;;;5.25;;
3307;SDS011;1666;48.898;9.182;2023-08-30T09:05:05;7.38;;;5.53;;
3307;SDS011;1666;48.898;9.182;2023-08-30T09:07:35;7.20;;;5.30;;
3307;SDS011;1666;48.898;9.182;2023-08-30T09:10:07;6.78;;;4.95;;
3307;SDS011;1666;48.898;9.182;2023-08-30T09:12:37;6.57;;;4.78;;
3307;SDS011;1666;48.898;9.182;2023-08-30T09:15:10;6.90;;;5.15;;
3307;SDS011;1666;48.898;9.182;2023-08-30T09:17:42;7.60;;;4.72;;
3307;SDS011;1666;48.898;9.182;2023-08-30T09:20:14;5.75;;;4.53;;
3307;SDS011;1666;48.898;9.182;2023-08-30T09:22:46;6.53;;;4.85;;
3307;SDS011;1666;48.898;9.182;2023-08-30T09:25:22;5.63;;;4.82;;
3307;SDS011;1666;48.898;9.182;2023-08-30T09:27:57;6.88;;;4.90;;
3307;SDS011;1666;48.898;9.182;2023-08-30T09:30:30;5.88;;;4.32;;
3307;SDS011;1666;48.898;9.182;2023-08-30T09:33:00;5.43;;;4.47;;
3307;SDS011;1666;48.898;9.182;2023-08-30T09:35:31;5.45;;;4.13;;
3307;SDS011;1666;48.898;9.182;2023-08-30T09:38:15;4.75;;;3.88;;
3307;SDS011;1666;48.898;9.182;2023-08-30T09:40:46;9.90;;;4.47;;
3307;SDS011;1666;48.898;9.182;2023-08-30T09:43:18;5.63;;;4.15;;
3307;SDS011;1666;48.898;9.182;2023-08-30T09:45:51;9.68;;;4.60;;
3307;SDS011;1666;48.898;9.182;2023-08-30T09:48:21;6.88;;;4.47;;
3307;SDS011;1666;48.898;9.182;2023-08-30T09:50:57;4.53;;;4.00;;
3307;SDS011;1666;48.898;9.182;2023-08-30T09:53:28;5.03;;;3.90;;
3307;SDS011;1666;48.898;9.182;2023-08-30T09:56:08;8.38;;;3.92;;
3307;SDS011;1666;48.898;9.182;2023-08-30T09:58:40;4.30;;;3.30;;
3307;SDS011;1666;48.898;9.182;2023-08-30T10:01:14;5.35;;;3.58;;
3307;SDS011;1666;48.898;9.182;2023-08-30T10:03:44;5.85;;;3.47;;
3307;SDS011;1666;48.898;9.182;2023-08-30T10:06:14;4.20;;;3.63;;
3307;SDS011;1666;48.898;9.182;2023-08-30T10:08:44;4.53;;;3.53;;
3307;SDS011;1666;48.898;9.182;2023-08-30T10:11:18;3.47;;;3.13;;
3307;SDS011;1666;48.898;9.182;2023-08-30T10:13:48;4.75;;;3.20;;
3307;SDS011;1666;48.898;9.182;2023-08-30T10:16:22;5.25;;;3.33;;
3307;SDS011;1666;48.898;9.182;2023-08-30T10:18:59;3.17;;;2.88;;
3307;SDS011;1666;48.898;9.182;2023-08-30T10:21:33;4.00;;;2.78;;
3307;SDS011;1666;48.898;9.182;2023-08-30T10:24:05;3.17;;;2.78;;
3307;SDS011;1666;48.898;9.182;2023-08-30T10:26:58;3.78;;;2.70;;
3307;SDS011;1666;48.898;9.182;2023-08-30T10:29:30;2.92;;;2.45;;
3307;SDS011;1666;48.898;9.182;2023-08-30T10:32:05;3.22;;;2.25;;
3307;SDS011;1666;48.898;9.182;2023-08-30T10:34:36;4.68;;;1.88;;
3307;SDS011;1666;48.898;9.182;2023-08-30T10:37:06;3.08;;;2.45;;
3307;SDS011;1666;48.898;9.182;2023-08-30T10:39:38;2.45;;;2.10;;
3307;SDS011;1666;48.898;9.182;2023-08-30T10:42:09;2.95;;;2.30;;
3307;SDS011;1666;48.898;9.182;2023-08-30T10:44:49;3.45;;;2.33;;
3307;SDS011;1666;48.898;9.182;2023-08-30T10:47:41;2.85;;;1.83;;
3307;SDS011;1666;48.898;9.182;2023-08-30T10:50:11;2.42;;;2.22;;
3307;SDS011;1666;48.898;9.182;2023-08-30T10:52:43;2.67;;;2.05;;
3307;SDS011;1666;48.898;9.182;2023-08-30T10:55:24;4.53;;;2.13;;
3307;SDS011;1666;48.898;9.182;2023-08-30T10:57:57;3.20;;;2.58;;
3307;SDS011;1666;48.898;9.182;2023-08-30T11:00:29;3.92;;;2.47;;
3307;SDS011;1666;48.898;9.182;2023-08-30T11:03:10;3.58;;;2.58;;
3307;SDS011;1666;48.898;9.182;2023-08-30T11:05:40;3.40;;;2.40;;
3307;SDS011;1666;48.898;9.182;2023-08-30T11:08:10;2.78;;;2.40;;
3307;SDS011;1666;48.898;9.182;2023-08-30T11:10:41;2.75;;;2.20;;
3307;SDS011;1666;48.898;9.182;2023-08-30T11:13:14;3.90;;;2.38;;
3307;SDS011;1666;48.898;9.182;2023-08-30T11:15:44;3.50;;;2.33;;
3307;SDS011;1666;48.898;9.182;2023-08-30T11:18:21;5.30;;;2.05;;
3307;SDS011;1666;48.898;9.182;2023-08-30T11:20:53;3.97;;;2.50;;
3307;SDS011;1666;48.898;9.182;2023-08-30T11:23:27;4.72;;;2.72;;
3307;SDS011;1666;48.898;9.182;2023-08-30T11:25:57;3.17;;;2.88;;
3307;SDS011;1666;48.898;9.182;2023-08-30T11:28:26;3.83;;;3.15;;
3307;SDS011;1666;48.898;9.182;2023-08-30T11:30:56;6.95;;;3.10;;
3307;SDS011;1666;48.898;9.182;2023-08-30T11:33:29;7.05;;;3.72;;
3307;SDS011;1666;48.898;9.182;2023-08-30T11:35:59;3.88;;;3.08;;
3307;SDS011;1666;48.898;9.182;2023-08-30T11:38:29;4.07;;;2.80;;
3307;SDS011;1666;48.898;9.182;2023-08-30T11:40:59;6.10;;;3.20;;
3307;SDS011;1666;48.898;9.182;2023-08-30T11:43:29;4.70;;;3.22;;
3307;SDS011;1666;48.898;9.182;2023-08-30T11:45:59;5.05;;;3.20;;
3307;SDS011;1666;48.898;9.182;2023-08-30T11:48:32;4.05;;;3.00;;
3307;SDS011;1666;48.898;9.182;2023-08-30T11:51:03;4.75;;;2.70;;
3307;SDS011;1666;48.898;9.182;2023-08-30T11:53:33;3.92;;;3.38;;
3307;SDS011;1666;48.898;9.182;2023-08-30T11:56:03;4.80;;;3.00;;
3307;SDS011;1666;48.898;9.182;2023-08-30T11:58:34;4.97;;;3.33;;
3307;SDS011;1666;48.898;9.182;2023-08-30T12:01:05;6.85;;;3.47;;
3307;SDS011;1666;48.898;9.182;2023-08-30T12:03:39;5.45;;;3.20;;
3307;SDS011;1666;48.898;9.182;2023-08-30T12:06:09;6.47;;;3.17;;
3307;SDS011;1666;48.898;9.182;2023-08-30T12:08:41;3.08;;;2.75;;
3307;SDS011;1666;48.898;9.182;2023-08-30T12:11:17;3.20;;;2.90;;
3307;SDS011;1666;48.898;9.182;2023-08-30T12:13:48;5.18;;;3.47;;
3307;SDS011;1666;48.898;9.182;2023-08-30T12:16:22;3.97;;;3.35;;
3307;SDS011;1666;48.898;9.182;2023-08-30T12:18:54;4.25;;;3.40;;
3307;SDS011;1666;48.898;9.182;2023-08-30T12:21:24;4.03;;;3.60;;
3307;SDS011;1666;48.898;9.182;2023-08-30T12:23:59;4.20;;;3.40;;
3307;SDS011;1666;48.898;9.182;2023-08-30T12:26:31;3.58;;;3.03;;
3307;SDS011;1666;48.898;9.182;2023-08-30T12:29:04;6.10;;;4.55;;
3307;SDS011;1666;48.898;9.182;2023-08-30T12:31:34;5.03;;;4.53;;
3307;SDS011;1666;48.898;9.182;2023-08-30T12:34:07;5.07;;;4.43;;
3307;SDS011;1666;48.898;9.182;2023-08-30T12:36:36;6.50;;;4.32;;
3307;SDS011;1666;48.898;9.182;2023-08-30T12:39:06;5.50;;;4.18;;
3307;SDS011;1666;48.898;9.182;2023-08-30T12:41:36;4.32;;;3.92;;
3307;SDS011;1666;48.898;9.182;2023-08-30T12:44:09;4.28;;;3.90;;
3307;SDS011;1666;48.898;9.182;2023-08-30T12:46:39;4.90;;;3.60;;
3307;SDS011;1666;48.898;9.182;2023-08-30T12:49:12;5.57;;;4.82;;
3307;SDS011;1666;48.898;9.182;2023-08-30T12:51:42;6.53;;;5.60;;
3307;SDS011;1666;48.898;9.182;2023-08-30T12:54:12;5.28;;;3.15;;
3307;SDS011;1666;48.898;9.182;2023-08-30T12:56:41;4.03;;;3.47;;
3307;SDS011;1666;48.898;9.182;2023-08-30T12:59:11;4.43;;;2.63;;
3307;SDS011;1666;48.898;9.182;2023-08-30T13:01:41;4.70;;;2.80;;
3307;SDS011;1666;48.898;9.182;2023-08-30T13:04:15;4.45;;;3.08;;
3307;SDS011;1666;48.898;9.182;2023-08-30T13:06:45;3.25;;;2.95;;
3307;SDS011;1666;48.898;9.182;2023-08-30T13:09:15;3.40;;;2.88;;
3307;SDS011;1666;48.898;9.182;2023-08-30T13:11:45;3.20;;;2.90;;
3307;SDS011;1666;48.898;9.182;2023-08-30T13:14:15;5.03;;;3.30;;
3307;SDS011;1666;48.898;9.182;2023-08-30T13:16:44;3.72;;;2.90;;
3307;SDS011;1666;48.898;9.182;2023-08-30T13:19:17;4.47;;;3.65;;
3307;SDS011;1666;48.898;9.182;2023-08-30T13:21:47;5.72;;;3.30;;
3307;SDS011;1666;48.898;9.182;2023-08-30T13:24:17;6.22;;;4.85;;
3307;SDS011;1666;48.898;9.182;2023-08-30T13:26:47;3.97;;;3.30;;
3307;SDS011;1666;48.898;9.182;2023-08-30T13:29:17;3.10;;;2.80;;
3307;SDS011;1666;48.898;9.182;2023-08-30T13:31:47;4.03;;;2.42;;
3307;SDS011;1666;48.898;9.182;2023-08-30T13:34:19;3.55;;;2.95;;
3307;SDS011;1666;48.898;9.182;2023-08-30T13:36:49;3.28;;;2.97;;
3307;SDS011;1666;48.898;9.182;2023-08-30T13:39:19;3.45;;;2.65;;
3307;SDS011;1666;48.898;9.182;2023-08-30T13:41:49;4.15;;;2.90;;
3307;SDS011;1666;48.898;9.182;2023-08-30T13:44:19;4.20;;;2.35;;
3307;SDS011;1666;48.898;9.182;2023-08-30T13:46:49;4.15;;;3.05;;
3307;SDS011;1666;48.898;9.182;2023-08-30T13:49:22;2.50;;;2.30;;
3307;SDS011;1666;48.898;9.182;2023-08-30T13:51:53;3.05;;;2.35;;
3307;SDS011;1666;48.898;9.182;2023-08-30T13:54:23;3.53;;;2.90;;
3307;SDS011;1666;48.898;9.182;2023-08-30T13:56:56;5.35;;;2.42;;
3307;SDS011;1666;48.898;9.182;2023-08-30T13:59:26;3.08;;;2.42;;
3307;SDS011;1666;48.898;9.182;2023-08-30T14:01:57;4.07;;;2.63;;
3307;SDS011;1666;48.898;9.182;2023-08-30T14:04:30;5.38;;;2.60;;
3307;SDS011;1666;48.898;9.182;2023-08-30T14:07:04;3.20;;;2.70;;
3307;SDS011;1666;48.898;9.182;2023-08-30T14:09:34;3.42;;;2.45;;
3307;SDS011;1666;48.898;9.182;2023-08-30T14:12:04;3.67;;;2.88;;
3307;SDS011;1666;48.898;9.182;2023-08-30T14:14:35;3.45;;;3.10;;
3307;SDS011;1666;48.898;9.182;2023-08-30T14:17:05;3.33;;;2.55;;
3307;SDS011;1666;48.898;9.182;2023-08-30T14:19:37;3.17;;;2.25;;
3307;SDS011;1666;48.898;9.182;2023-08-30T14:22:07;5.65;;;2.40;;
3307;SDS011;1666;48.898;9.182;2023-08-30T14:24:37;2.80;;;2.40;;
3307;SDS011;1666;48.898;9.182;2023-08-30T14:27:27;3.30;;;2.75;;
3307;SDS011;1666;48.898;9.182;2023-08-30T14:29:57;2.60;;;2.35;;
3307;SDS011;1666;48.898;9.182;2023-08-30T14:32:27;2.92;;;2.60;;
3307;SDS011;1666;48.898;9.182;2023-08-30T14:35:00;3.30;;;2.25;;
3307;SDS011;1666;48.898;9.182;2023-08-30T14:40:02;5.32;;;3.00;;
3307;SDS011;1666;48.898;9.182;2023-08-30T14:42:32;3.67;;;2.78;;
3307;SDS011;1666;48.898;9.182;2023-08-30T14:45:03;3.00;;;2.67;;
3307;SDS011;1666;48.898;9.182;2023-08-30T14:47:33;3.58;;;2.78;;
3307;SDS011;1666;48.898;9.182;2023-08-30T14:50:07;3.65;;;3.05;;
3307;SDS011;1666;48.898;9.182;2023-08-30T14:52:37;2.72;;;2.50;;
3307;SDS011;1666;48.898;9.182;2023-08-30T14:55:07;4.82;;;2.88;;
3307;SDS011;1666;48.898;9.182;2023-08-30T14:57:38;4.13;;;2.80;;
3307;SDS011;1666;48.898;9.182;2023-08-30T15:00:08;5.85;;;3.25;;
3307;SDS011;1666;48.898;9.182;2023-08-30T15:02:38;2.60;;;2.28;;
3307;SDS011;1666;48.898;9.182;2023-08-30T15:05:11;3.63;;;2.53;;
3307;SDS011;1666;48.898;9.182;2023-08-30T15:07:41;4.32;;;2.83;;
3307;SDS011;1666;48.898;9.182;2023-08-30T15:10:11;4.45;;;3.00;;
3307;SDS011;1666;48.898;9.182;2023-08-30T15:12:42;3.67;;;2.63;;
3307;SDS011;1666;48.898;9.182;2023-08-30T15:15:13;4.20;;;2.90;;
3307;SDS011;1666;48.898;9.182;2023-08-30T15:17:44;7.40;;;3.30;;
3307;SDS011;1666;48.898;9.182;2023-08-30T15:20:18;5.95;;;3.15;;
3307;SDS011;1666;48.898;9.182;2023-08-30T15:22:48;6.38;;;3.60;;
3307;SDS011;1666;48.898;9.182;2023-08-30T15:25:19;3.53;;;2.70;;
3307;SDS011;1666;48.898;9.182;2023-08-30T15:27:49;4.70;;;2.75;;
3307;SDS011;1666;48.898;9.182;2023-08-30T15:30:19;6.15;;;3.08;;